Time;durP1;ratioP1;P1;durP2;ratioP2;P2;SDS_P1;SDS_P2;PMS_P1;PMS_P2;Temp;Humidity;BMP_temperature;BMP_pressure;BME280_temperature;BME280_humidity;BME280_pressure;Samples;Min_cycle;Max_cycle;Signal;HPM_P1;HPM_P2
2023/09/02 00:02:14;;;;;;;7.53;3.00;;;19.20;99.90;;;;;;5091343;28;20501;-67
2023/09/02 00:05:19;;;;;;;8.80;3.67;;;19.10;99.90;;;;;;5091518;28;20035;-67
2023/09/02 00:08:23;;;;;;;6.45;3.08;;;19.10;99.90;;;;;;5102872;28;20051;-67
2023/09/02 00:11:27;;;;;;;11.00;3.63;;;19.00;99.90;;;;;;5110870;28;20097;-67
2023/09/02 00:14:31;;;;;;;11.63;3.25;;;19.00;99.90;;;;;;5112061;28;20042;-68
2023/09/02 00:17:35;;;;;;;9.18;3.40;;;18.90;99.90;;;;;;5111766;28;20047;-67
2023/09/02 00:20:39;;;;;;;8.15;4.35;;;18.90;99.90;;;;;;5111716;28;20050;-67
2023/09/02 00:23:46;;;;;;;8.63;4.00;;;18.80;99.90;;;;;;5111724;28;20398;-67
2023/09/02 00:26:49;;;;;;;8.32;3.50;;;18.70;99.90;;;;;;5111388;28;20035;-67
2023/09/02 00:29:54;;;;;;;14.05;3.53;;;18.60;99.90;;;;;;5111239;28;20035;-67
2023/09/02 00:32:58;;;;;;;11.48;4.13;;;18.60;99.90;;;;;;5111345;28;20046;-67
2023/09/02 00:36:02;;;;;;;9.50;3.65;;;18.50;99.90;;;;;;5111723;28;20398;-67
2023/09/02 00:39:06;;;;;;;8.07;3.95;;;18.40;99.90;;;;;;5111678;28;20043;-68
2023/09/02 00:42:13;;;;;;;6.78;3.92;;;18.40;99.90;;;;;;5098620;28;20398;-67
2023/09/02 00:45:21;;;;;;;9.80;4.35;;;18.30;99.90;;;;;;5111647;28;20054;-67
2023/09/02 00:48:25;;;;;;;13.25;4.38;;;18.20;99.90;;;;;;5111451;28;20047;-67
2023/09/02 00:51:30;;;;;;;8.82;4.30;;;18.10;99.90;;;;;;5098598;28;20043;-67
2023/09/02 00:54:34;;;;;;;10.02;4.68;;;18.00;99.90;;;;;;5111241;28;20432;-68
2023/09/02 00:57:38;;;;;;;9.55;4.53;;;17.90;99.90;;;;;;5110536;28;20105;-68
2023/09/02 01:00:44;;;;;;;9.38;4.35;;;17.70;99.90;;;;;;5110880;28;20390;-68
2023/09/02 01:03:48;;;;;;;9.10;4.82;;;17.60;99.90;;;;;;5111418;28;20054;-68
2023/09/02 01:06:55;;;;;;;12.75;5.47;;;17.50;99.90;;;;;;5098693;28;20046;-67
2023/09/02 01:10:01;;;;;;;9.02;4.47;;;17.40;99.90;;;;;;5110769;28;20042;-67
2023/09/02 01:13:05;;;;;;;10.95;4.15;;;17.40;99.90;;;;;;5098509;28;20105;-67
2023/09/02 01:16:10;;;;;;;9.30;4.45;;;17.40;99.90;;;;;;5110290;28;20039;-67
2023/09/02 01:19:17;;;;;;;8.93;4.38;;;17.30;99.90;;;;;;5111257;28;20047;-67
2023/09/02 01:22:45;;;;;;;9.10;4.47;;;17.30;99.90;;;;;;5111119;28;20055;-68
2023/09/02 01:26:07;;;;;;;8.43;4.28;;;17.30;99.90;;;;;;5114997;28;20039;-68
2023/09/02 01:29:18;;;;;;;9.65;4.57;;;17.20;99.90;;;;;;5114835;28;20062;-67
2023/09/02 01:32:25;;;;;;;11.23;4.63;;;17.20;99.90;;;;;;5115216;28;20043;-67
2023/09/02 01:35:33;;;;;;;12.52;4.70;;;17.20;99.90;;;;;;5114971;28;20042;-67
2023/09/02 01:38:38;;;;;;;8.07;4.57;;;17.20;99.90;;;;;;5114532;28;20104;-68
2023/09/02 01:41:43;;;;;;;13.05;5.05;;;17.20;99.90;;;;;;5101837;28;20050;-67
2023/09/02 01:44:47;;;;;;;9.25;4.78;;;17.20;99.90;;;;;;5114275;28;20054;-67
2023/09/02 01:47:51;;;;;;;13.70;6.05;;;17.20;99.90;;;;;;5114445;28;20043;-68
2023/09/02 01:50:57;;;;;;;11.82;5.38;;;17.10;99.90;;;;;;5101396;28;20035;-68
2023/09/02 01:54:01;;;;;;;10.23;4.97;;;17.10;99.90;;;;;;5101913;28;20046;-67
2023/09/02 01:57:06;;;;;;;11.52;5.07;;;17.10;99.90;;;;;;5114257;28;20035;-67
2023/09/02 02:00:11;;;;;;;8.90;4.63;;;17.10;99.90;;;;;;5101508;28;20074;-67
2023/09/02 02:03:24;;;;;;;9.93;5.15;;;17.00;99.90;;;;;;5113992;28;20058;-67
2023/09/02 02:06:31;;;;;;;8.88;5.53;;;17.10;99.90;;;;;;5101852;28;20039;-67
2023/09/02 02:09:41;;;;;;;8.43;5.05;;;17.00;99.90;;;;;;5113736;28;20043;-68
2023/09/02 02:12:45;;;;;;;10.00;5.28;;;17.10;99.90;;;;;;5113864;28;20387;-67
2023/09/02 02:15:49;;;;;;;11.80;4.93;;;17.10;99.90;;;;;;5101377;28;20046;-67
2023/09/02 02:18:53;;;;;;;10.02;4.75;;;17.10;99.90;;;;;;5113895;28;20043;-67
2023/09/02 02:21:58;;;;;;;9.38;5.07;;;17.10;99.90;;;;;;5113289;28;20055;-68
2023/09/02 02:25:02;;;;;;;12.98;5.40;;;17.10;99.90;;;;;;5100970;28;20051;-68
2023/09/02 02:28:06;;;;;;;11.68;5.40;;;17.10;99.90;;;;;;5101483;28;20054;-68
2023/09/02 02:31:11;;;;;;;8.77;5.93;;;17.10;99.90;;;;;;5113309;28;20039;-68
2023/09/02 02:34:15;;;;;;;13.65;6.00;;;17.10;99.90;;;;;;5113501;28;20058;-67
2023/09/02 02:37:20;;;;;;;17.10;6.22;;;17.10;99.90;;;;;;5113825;28;20513;-67
2023/09/02 02:40:23;;;;;;;15.00;5.47;;;17.10;99.90;;;;;;5113112;28;20059;-68
2023/09/02 02:43:28;;;;;;;11.95;5.90;;;17.10;99.90;;;;;;5113781;28;20516;-67
2023/09/02 02:46:32;;;;;;;12.45;6.20;;;17.00;99.90;;;;;;5113578;28;20058;-68
2023/09/02 02:49:36;;;;;;;13.93;5.50;;;17.00;99.90;;;;;;5113060;28;20043;-68
2023/09/02 02:52:40;;;;;;;10.90;5.13;;;17.00;99.90;;;;;;5100705;28;20038;-67
2023/09/02 02:55:43;;;;;;;11.77;5.32;;;17.00;99.90;;;;;;5112911;28;20039;-67
2023/09/02 02:58:47;;;;;;;15.23;4.53;;;17.00;99.90;;;;;;5112707;28;20038;-67
2023/09/02 03:01:51;;;;;;;7.07;4.45;;;16.90;99.90;;;;;;5111776;28;20058;-68
2023/09/02 03:04:55;;;;;;;11.23;5.25;;;16.90;99.90;;;;;;5113514;28;20047;-68
2023/09/02 03:07:59;;;;;;;13.15;5.00;;;16.90;99.90;;;;;;5112368;28;20113;-68
2023/09/02 03:11:05;;;;;;;16.73;5.45;;;16.70;99.90;;;;;;5111462;28;20050;-68
2023/09/02 03:14:11;;;;;;;10.45;5.05;;;16.70;99.90;;;;;;5100709;28;20246;-68
2023/09/02 03:17:20;;;;;;;11.70;5.35;;;16.60;99.90;;;;;;5112096;28;20058;-67
2023/09/02 03:20:26;;;;;;;10.98;5.43;;;16.60;99.90;;;;;;5099503;28;20042;-68
2023/09/02 03:23:34;;;;;;;10.73;4.75;;;16.50;99.90;;;;;;5100404;28;20047;-68
2023/09/02 03:26:38;;;;;;;14.38;5.63;;;16.40;99.90;;;;;;5112340;28;20038;-68
2023/09/02 03:29:41;;;;;;;14.75;6.25;;;16.40;99.90;;;;;;5099794;28;20051;-67
2023/09/02 03:32:45;;;;;;;14.13;6.22;;;16.40;99.90;;;;;;5099797;28;20089;-68
2023/09/02 03:35:50;;;;;;;14.02;6.05;;;16.40;99.90;;;;;;5100097;28;20382;-68
2023/09/02 03:38:54;;;;;;;15.43;6.78;;;16.40;99.90;;;;;;5112454;28;20047;-68
2023/09/02 03:42:00;;;;;;;13.02;6.13;;;16.40;99.90;;;;;;5099529;28;20050;-67
2023/09/02 03:45:05;;;;;;;16.30;6.03;;;16.40;99.90;;;;;;5100061;28;20066;-67
2023/09/02 03:48:09;;;;;;;11.93;5.78;;;16.40;99.90;;;;;;5099056;28;20047;-67
2023/09/02 03:51:17;;;;;;;16.35;5.90;;;16.40;99.90;;;;;;5111144;28;20382;-67
2023/09/02 03:54:26;;;;;;;9.60;5.63;;;16.40;99.90;;;;;;5111762;28;20038;-67
2023/09/02 03:57:31;;;;;;;12.40;5.45;;;16.30;99.90;;;;;;5112271;28;20054;-68
2023/09/02 04:00:35;;;;;;;9.15;5.35;;;16.40;99.90;;;;;;5099372;28;20042;-68
2023/09/02 04:03:39;;;;;;;10.18;5.47;;;16.40;99.90;;;;;;5099483;28;20394;-68
2023/09/02 04:06:48;;;;;;;7.28;5.20;;;16.40;99.90;;;;;;5111138;28;20042;-67
2023/09/02 04:09:53;;;;;;;7.00;4.60;;;16.40;99.90;;;;;;5098786;28;20070;-68
2023/09/02 04:12:57;;;;;;;10.57;5.38;;;16.50;99.90;;;;;;5111567;28;20382;-67
2023/09/02 04:16:01;;;;;;;16.48;5.40;;;16.50;99.90;;;;;;5111701;28;20034;-68
2023/09/02 04:19:06;;;;;;;13.52;5.22;;;16.50;99.90;;;;;;5099537;28;20046;-68
2023/09/02 04:22:10;;;;;;;10.23;5.78;;;16.50;99.90;;;;;;5111397;28;20046;-68
2023/09/02 04:25:16;;;;;;;14.13;6.13;;;16.50;99.90;;;;;;5111647;28;20038;-67
2023/09/02 04:28:21;;;;;;;11.95;6.07;;;16.40;99.90;;;;;;5110728;28;20046;-67
2023/09/02 04:31:25;;;;;;;11.82;6.22;;;16.30;99.90;;;;;;5110464;28;20050;-68
2023/09/02 04:34:29;;;;;;;12.30;6.63;;;16.30;99.90;;;;;;5099213;28;20039;-68
2023/09/02 04:37:33;;;;;;;10.75;6.20;;;16.20;99.90;;;;;;5099258;28;20428;-67
2023/09/02 04:40:41;;;;;;;10.82;6.10;;;16.20;99.90;;;;;;5111399;28;20540;-67
2023/09/02 04:43:45;;;;;;;11.52;6.60;;;16.20;99.90;;;;;;5111437;28;20043;-67
2023/09/02 04:46:51;;;;;;;16.23;7.30;;;16.20;99.90;;;;;;5110725;28;20493;-67
2023/09/02 04:49:55;;;;;;;10.27;6.38;;;16.20;99.90;;;;;;5110772;28;20485;-68
2023/09/02 04:53:00;;;;;;;11.98;6.18;;;16.20;99.90;;;;;;5110702;28;20046;-67
2023/09/02 04:56:09;;;;;;;9.45;5.70;;;16.20;99.90;;;;;;5111623;28;20047;-67
2023/09/02 04:59:14;;;;;;;10.13;5.93;;;16.20;99.90;;;;;;5100939;28;20046;-68
2023/09/02 05:02:18;;;;;;;9.40;5.90;;;16.10;99.90;;;;;;5115556;28;20050;-68
2023/09/02 05:05:23;;;;;;;9.80;5.47;;;16.10;99.90;;;;;;5102983;28;20045;-68
2023/09/02 05:08:31;;;;;;;9.98;5.38;;;16.00;99.90;;;;;;5102660;28;20070;-67
2023/09/02 05:11:36;;;;;;;11.23;5.68;;;16.10;99.90;;;;;;5102381;28;20035;-68
2023/09/02 05:14:40;;;;;;;15.40;5.45;;;16.10;99.90;;;;;;5102614;28;20039;-67
2023/09/02 05:17:45;;;;;;;15.30;5.07;;;16.10;99.90;;;;;;5114996;28;20043;-67
2023/09/02 05:20:53;;;;;;;13.18;4.95;;;16.20;99.90;;;;;;5102094;28;20501;-67
2023/09/02 05:23:57;;;;;;;8.45;4.88;;;16.30;99.90;;;;;;5095294;28;20505;-67
2023/09/02 05:27:01;;;;;;;11.50;5.18;;;16.30;99.90;;;;;;5086292;28;20043;-68
2023/09/02 05:30:06;;;;;;;9.15;4.13;;;18.10;99.90;;;;;;5094135;28;20039;-68
2023/09/02 05:33:11;;;;;;;8.63;4.18;;;21.20;99.90;;;;;;5089503;28;20051;-67
2023/09/02 05:36:14;;;;;;;9.07;3.75;;;23.90;99.90;;;;;;5094703;28;20494;-67
2023/09/02 05:39:18;;;;;;;6.70;3.60;;;25.90;99.90;;;;;;5094205;28;20237;-68
2023/09/02 05:42:22;;;;;;;6.47;3.00;;;27.20;99.90;;;;;;5090951;28;20059;-66
2023/09/02 05:45:26;;;;;;;5.88;3.13;;;27.80;99.90;;;;;;5094449;28;20039;-68
2023/09/02 05:48:30;;;;;;;7.90;4.07;;;28.50;99.90;;;;;;5094072;28;20494;-68
2023/09/02 05:51:34;;;;;;;5.25;3.10;;;29.70;99.90;;;;;;5094047;28;20051;-68
2023/09/02 05:54:38;;;;;;;6.70;3.00;;;30.30;99.90;;;;;;5094263;28;20043;-67
2023/09/02 05:57:42;;;;;;;7.25;2.88;;;30.30;99.90;;;;;;5094294;28;20036;-68
2023/09/02 06:00:47;;;;;;;6.65;3.13;;;30.80;98.80;;;;;;5093674;28;20051;-68
2023/09/02 06:03:50;;;;;;;8.18;3.15;;;31.20;98.20;;;;;;5093953;28;20039;-68
2023/09/02 06:06:54;;;;;;;7.03;3.30;;;32.00;97.80;;;;;;5094113;28;20051;-68
2023/09/02 06:09:58;;;;;;;5.32;2.83;;;32.40;96.70;;;;;;5092668;28;20043;-68
2023/09/02 06:13:03;;;;;;;11.77;4.13;;;33.00;95.80;;;;;;5093968;28;20047;-68
2023/09/02 06:16:07;;;;;;;8.50;2.63;;;33.00;95.40;;;;;;5093745;28;20505;-68
2023/09/02 06:19:11;;;;;;;11.23;3.47;;;33.20;95.10;;;;;;5093515;28;20043;-67
2023/09/02 06:22:15;;;;;;;6.15;2.90;;;33.10;94.80;;;;;;5093707;28;20536;-68
2023/09/02 06:25:19;;;;;;;11.68;3.47;;;33.30;94.30;;;;;;5080757;28;20418;-68
2023/09/02 06:28:24;;;;;;;7.07;2.92;;;33.50;94.00;;;;;;5093649;28;20067;-68
2023/09/02 06:31:28;;;;;;;6.38;2.92;;;34.10;93.50;;;;;;5093080;28;20047;-68
2023/09/02 06:34:32;;;;;;;11.32;3.30;;;34.30;93.20;;;;;;5093297;28;20051;-67
2023/09/02 06:37:35;;;;;;;5.50;2.60;;;34.20;92.80;;;;;;5093309;28;20039;-67
2023/09/02 06:40:40;;;;;;;5.32;2.63;;;34.00;92.90;;;;;;5092902;28;20059;-68
2023/09/02 06:43:44;;;;;;;8.98;2.85;;;33.30;92.80;;;;;;5093452;28;20056;-67
2023/09/02 06:46:47;;;;;;;11.60;3.28;;;32.60;93.00;;;;;;5093164;28;20054;-68
2023/09/02 06:49:51;;;;;;;9.40;2.75;;;31.60;93.70;;;;;;5092693;28;20039;-67
2023/09/02 06:52:56;;;;;;;10.40;3.35;;;30.30;95.10;;;;;;5092584;28;20047;-68
2023/09/02 06:56:00;;;;;;;9.75;3.42;;;29.20;95.70;;;;;;5093087;28;20387;-68
2023/09/02 06:59:05;;;;;;;5.45;2.78;;;28.60;97.10;;;;;;5093324;28;20383;-68
2023/09/02 07:02:08;;;;;;;9.05;2.83;;;29.20;96.90;;;;;;5092042;28;20513;-68
2023/09/02 07:05:12;;;;;;;7.13;2.90;;;29.40;96.50;;;;;;5092736;28;20051;-68
2023/09/02 07:08:16;;;;;;;5.95;3.08;;;30.70;95.10;;;;;;5092844;28;20490;-68
2023/09/02 07:11:21;;;;;;;6.72;3.03;;;29.90;95.90;;;;;;5092220;28;20043;-68
2023/09/02 07:14:24;;;;;;;7.40;3.03;;;28.40;96.80;;;;;;5092705;28;20398;-68
2023/09/02 07:17:28;;;;;;;4.43;2.50;;;28.30;98.40;;;;;;5092208;28;20502;-68
2023/09/02 07:20:36;;;;;;;5.32;2.85;;;30.10;96.60;;;;;;5092196;28;20047;-67
2023/09/02 07:23:40;;;;;;;8.77;3.47;;;31.70;95.00;;;;;;5092471;28;20051;-68
2023/09/02 07:26:44;;;;;;;5.35;2.72;;;32.20;94.10;;;;;;5092136;28;20055;-67
2023/09/02 07:29:48;;;;;;;7.78;3.05;;;32.50;93.10;;;;;;5092226;28;20043;-68
2023/09/02 07:32:52;;;;;;;5.47;2.63;;;32.80;92.90;;;;;;5079574;28;20051;-68
2023/09/02 07:35:57;;;;;;;3.92;2.40;;;33.70;92.60;;;;;;5092411;28;20047;-67
2023/09/02 07:39:01;;;;;;;4.55;2.40;;;34.80;91.80;;;;;;5092343;28;20051;-68
2023/09/02 07:42:05;;;;;;;6.40;3.15;;;35.30;91.10;;;;;;5091840;28;20043;-68
2023/09/02 07:45:10;;;;;;;4.68;2.15;;;35.90;90.60;;;;;;5092404;28;20395;-65
2023/09/02 07:48:14;;;;;;;5.72;3.22;;;37.10;89.80;;;;;;5092220;28;20047;-68
2023/09/02 07:51:18;;;;;;;7.65;2.42;;;37.80;87.30;;;;;;5091764;28;20043;-67
2023/09/02 07:54:22;;;;;;;5.13;2.13;;;38.10;85.80;;;;;;5091897;28;20043;-68
2023/09/02 07:57:27;;;;;;;6.00;2.42;;;38.30;85.30;;;;;;5091775;28;20035;-67
2023/09/02 08:00:33;;;;;;;4.20;2.08;;;38.30;83.30;;;;;;5091185;28;20424;-67
2023/09/02 08:03:37;;;;;;;4.70;2.38;;;36.30;85.30;;;;;;5091934;28;20051;-67
2023/09/02 08:06:42;;;;;;;5.47;2.35;;;34.40;86.80;;;;;;5091914;28;20047;-67
2023/09/02 08:09:49;;;;;;;5.60;2.65;;;34.00;88.60;;;;;;5091629;28;20514;-67
2023/09/02 08:12:53;;;;;;;6.97;2.22;;;35.20;86.10;;;;;;5086651;28;20039;-67
2023/09/02 08:15:58;;;;;;;4.85;2.33;;;35.90;85.80;;;;;;5084304;28;20047;-67
2023/09/02 08:19:02;;;;;;;5.38;2.40;;;35.10;85.70;;;;;;5079111;28;20063;-68
2023/09/02 08:22:07;;;;;;;6.03;2.65;;;36.00;83.40;;;;;;5091249;28;20055;-68
2023/09/02 08:25:11;;;;;;;5.32;2.35;;;36.00;84.80;;;;;;5089574;28;20493;-67
2023/09/02 08:28:14;;;;;;;3.97;2.10;;;34.60;84.20;;;;;;5086856;28;20039;-67
2023/09/02 08:31:19;;;;;;;8.68;2.72;;;36.40;83.00;;;;;;5085940;28;20047;-67
2023/09/02 08:34:22;;;;;;;8.27;2.60;;;34.90;83.50;;;;;;5087412;28;20387;-67
2023/09/02 08:37:26;;;;;;;6.85;2.60;;;35.50;83.10;;;;;;5090552;28;20478;-67
2023/09/02 08:40:31;;;;;;;6.90;2.53;;;36.50;81.80;;;;;;5081885;28;20047;-67
2023/09/02 08:43:36;;;;;;;3.53;2.28;;;36.90;81.10;;;;;;5091176;28;20055;-68
2023/09/02 08:46:42;;;;;;;3.33;2.05;;;38.00;80.20;;;;;;5078885;28;20039;-68
2023/09/02 08:49:46;;;;;;;6.32;2.47;;;39.50;78.80;;;;;;5091160;28;20047;-68
2023/09/02 08:52:52;;;;;;;5.32;2.47;;;39.00;77.20;;;;;;5086540;28;20039;-68
2023/09/02 08:55:58;;;;;;;4.75;2.13;;;38.90;78.30;;;;;;5070672;28;20044;-67
2023/09/02 08:59:02;;;;;;;4.35;2.28;;;39.50;77.20;;;;;;5070984;28;20387;-67
2023/09/02 09:02:10;;;;;;;3.53;2.08;;;39.40;76.60;;;;;;5084018;28;20486;-68
2023/09/02 09:05:14;;;;;;;11.50;2.55;;;39.40;76.50;;;;;;5085931;28;20418;-68
2023/09/02 09:08:20;;;;;;;5.97;2.10;;;40.50;75.20;;;;;;5078494;28;20043;-67
2023/09/02 09:11:26;;;;;;;3.80;2.30;;;38.90;74.90;;;;;;5090890;28;20051;-68
2023/09/02 09:14:32;;;;;;;5.95;1.85;;;37.80;75.40;;;;;;5090830;28;20043;-67
2023/09/02 09:17:37;;;;;;;4.20;2.30;;;36.50;78.00;;;;;;5091096;28;20497;-67
2023/09/02 09:20:41;;;;;;;4.80;1.90;;;38.70;76.60;;;;;;5090086;28;20039;-68
2023/09/02 09:23:45;;;;;;;5.40;1.95;;;40.00;75.30;;;;;;5090888;28;20043;-68
2023/09/02 09:26:50;;;;;;;4.55;1.98;;;41.10;74.10;;;;;;5090775;28;20043;-67
2023/09/02 09:29:54;;;;;;;4.90;2.35;;;42.10;71.80;;;;;;5090418;28;20051;-67
2023/09/02 09:33:00;;;;;;;4.95;2.15;;;41.40;69.90;;;;;;5083789;28;20047;-67
2023/09/02 09:36:11;;;;;;;9.60;2.33;;;42.10;71.40;;;;;;5086657;28;20047;-67
2023/09/02 09:39:14;;;;;;;4.70;2.03;;;43.20;68.80;;;;;;5085989;28;20047;-67
2023/09/02 09:42:33;;;;;;;5.57;2.33;;;42.80;69.00;;;;;;5076563;28;20043;-67
2023/09/02 09:45:51;;;;;;;3.60;1.73;;;43.10;69.30;;;;;;5095498;28;20387;-67
2023/09/02 09:49:01;;;;;;;4.65;1.60;;;42.50;67.60;;;;;;5087609;28;20039;-67
2023/09/02 09:52:12;;;;;;;2.92;1.77;;;42.70;66.80;;;;;;5087996;28;20498;-67
2023/09/02 09:55:25;;;;;;;5.10;2.40;;;44.40;66.30;;;;;;5094710;28;20050;-67
2023/09/02 09:58:29;;;;;;;3.38;1.58;;;45.50;65.20;;;;;;5093686;28;20055;-68
2023/09/02 10:01:34;;;;;;;6.00;1.77;;;44.90;63.20;;;;;;5093550;28;20043;-68
2023/09/02 10:04:38;;;;;;;4.38;1.80;;;45.70;62.80;;;;;;5094230;28;20486;-67
2023/09/02 10:07:42;;;;;;;3.75;1.98;;;43.10;62.60;;;;;;5094272;28;20379;-67
2023/09/02 10:10:46;;;;;;;3.25;1.73;;;43.70;64.00;;;;;;5093530;28;20051;-67
2023/09/02 10:13:52;;;;;;;7.18;1.67;;;40.40;64.70;;;;;;5093545;28;20069;-67
2023/09/02 10:16:58;;;;;;;8.95;2.47;;;42.70;63.40;;;;;;5093547;28;20051;-68
2023/09/02 10:20:02;;;;;;;3.53;1.83;;;44.20;62.70;;;;;;5092991;28;20047;-67
2023/09/02 10:23:08;;;;;;;6.53;2.13;;;38.90;64.70;;;;;;5092299;28;20063;-66
2023/09/02 10:26:21;;;;;;;4.65;1.67;;;40.10;66.20;;;;;;5093474;28;20047;-67
2023/09/02 10:29:31;;;;;;;3.42;1.67;;;43.10;64.60;;;;;;5093730;28;20051;-68
2023/09/02 10:32:47;;;;;;;7.85;2.35;;;46.10;62.10;;;;;;5093319;28;20047;-68
2023/09/02 10:36:00;;;;;;;3.40;1.60;;;45.70;60.40;;;;;;5093341;28;20039;-67
2023/09/02 10:39:12;;;;;;;3.63;1.60;;;45.10;61.00;;;;;;5093399;28;20051;-67
2023/09/02 10:42:18;;;;;;;2.85;1.55;;;43.80;61.00;;;;;;5080168;28;20482;-67
2023/09/02 10:45:22;;;;;;;5.10;1.80;;;42.60;62.00;;;;;;5093099;28;20039;-67
2023/09/02 10:48:26;;;;;;;2.67;1.65;;;42.10;61.90;;;;;;5093034;28;20059;-68
2023/09/02 10:51:30;;;;;;;9.77;1.90;;;39.50;60.50;;;;;;5092497;28;20039;-67
2023/09/02 10:55:14;;;;;;;5.00;1.92;;;40.30;60.50;;;;;;5091254;28;20059;-68
2023/09/02 10:58:18;;;;;;;5.55;1.70;;;44.00;59.10;;;;;;5026153;28;20048;-67
2023/09/02 11:01:22;;;;;;;5.78;1.80;;;44.20;59.10;;;;;;5018111;28;20176;-67
2023/09/02 11:04:44;;;;;;;4.30;2.28;;;43.80;58.60;;;;;;5072336;28;20040;-67
2023/09/02 11:07:49;;;;;;;4.43;2.40;;;40.40;56.80;;;;;;5072422;28;20590;-68
2023/09/02 11:10:53;;;;;;;3.30;2.38;;;38.80;57.40;;;;;;5084224;28;20040;-67
2023/09/02 11:14:06;;;;;;;5.28;2.30;;;39.60;58.00;;;;;;5072092;28;20059;-67
2023/09/02 11:17:28;;;;;;;5.25;2.17;;;41.00;56.50;;;;;;5072512;28;20047;-66
2023/09/02 11:20:48;;;;;;;4.60;2.42;;;38.20;58.20;;;;;;5071562;28;20411;-67
2023/09/02 11:23:52;;;;;;;6.43;1.90;;;41.50;58.20;;;;;;5091945;28;20036;-66
2023/09/02 11:26:58;;;;;;;4.57;2.00;;;44.20;56.60;;;;;;5072329;28;20067;-66
2023/09/02 11:30:09;;;;;;;4.22;1.77;;;44.70;56.90;;;;;;5069147;28;20043;-66
2023/09/02 11:33:18;;;;;;;4.57;2.30;;;42.60;55.70;;;;;;5087536;28;20051;-67
2023/09/02 11:36:24;;;;;;;4.35;2.30;;;44.00;55.70;;;;;;5091921;28;20039;-66
2023/09/02 11:39:29;;;;;;;5.15;2.17;;;45.20;54.80;;;;;;5079482;28;20498;-67
2023/09/02 11:42:33;;;;;;;3.45;2.15;;;40.10;54.60;;;;;;5082705;28;20063;-67
2023/09/02 11:45:39;;;;;;;6.55;2.47;;;40.30;55.80;;;;;;5081460;28;20040;-66
2023/09/02 11:48:43;;;;;;;3.78;2.33;;;42.20;54.60;;;;;;5071668;28;20710;-67
2023/09/02 11:51:47;;;;;;;4.43;2.13;;;42.10;54.00;;;;;;5071107;28;20051;-67
2023/09/02 11:54:51;;;;;;;4.18;2.38;;;44.10;53.30;;;;;;5071820;28;20403;-67
2023/09/02 11:57:55;;;;;;;4.50;2.45;;;45.40;51.80;;;;;;5071535;28;20529;-67
2023/09/02 12:01:01;;;;;;;5.75;2.17;;;44.20;53.30;;;;;;5071305;28;20384;-68
2023/09/02 12:04:05;;;;;;;2.75;2.03;;;46.00;51.70;;;;;;5071752;28;20040;-67
2023/09/02 12:07:10;;;;;;;2.63;2.10;;;42.20;50.50;;;;;;5070738;28;20043;-67
2023/09/02 12:10:15;;;;;;;3.25;2.50;;;42.50;51.10;;;;;;5070879;28;20055;-67
2023/09/02 12:13:19;;;;;;;3.03;1.90;;;43.30;50.10;;;;;;5070271;28;20502;-66
2023/09/02 12:16:25;;;;;;;3.28;2.05;;;43.60;46.60;;;;;;5071074;28;20411;-66
2023/09/02 12:19:30;;;;;;;3.85;2.15;;;41.10;52.40;;;;;;5071183;28;20056;-67
2023/09/02 12:22:36;;;;;;;3.83;2.10;;;42.20;52.10;;;;;;5070687;28;20051;-67
2023/09/02 12:25:41;;;;;;;4.05;2.10;;;41.60;51.40;;;;;;5071186;28;20040;-67
2023/09/02 12:28:51;;;;;;;4.00;2.15;;;40.20;52.50;;;;;;5071382;28;20490;-67
